createdAt,value
2022-12-31T00:04:08.317Z,99786.28
2022-12-31T00:09:10.667Z,99796.63
2022-12-31T00:14:12.179Z,99800.31
2022-12-31T00:19:13.779Z,99785.28
2022-12-31T00:24:15.224Z,99791.78
2022-12-31T00:29:16.684Z,99791.06
2022-12-31T00:34:18.133Z,99797.38
2022-12-31T00:39:19.615Z,99783.56
2022-12-31T00:44:21.071Z,99789.53
2022-12-31T00:49:22.567Z,99792.09
2022-12-31T00:54:24.046Z,99806.00
2022-12-31T00:59:25.523Z,99811.22
2022-12-31T01:04:27.281Z,99811.91
2022-12-31T01:09:28.735Z,99810.13
2022-12-31T01:14:30.247Z,99817.97
2022-12-31T01:19:31.825Z,99810.59
2022-12-31T01:24:33.426Z,99824.59
2022-12-31T01:29:34.997Z,99838.22
2022-12-31T01:34:36.466Z,99846.22
2022-12-31T01:39:37.999Z,99866.63
2022-12-31T01:44:39.442Z,99857.94
2022-12-31T01:49:43.566Z,99860.22
2022-12-31T01:54:59.996Z,99857.81
2022-12-31T02:00:02.301Z,99865.75
2022-12-31T02:05:13.586Z,99843.00
2022-12-31T02:10:15.147Z,99846.34
2022-12-31T02:15:18.161Z,99851.91
2022-12-31T02:20:34.588Z,99852.72
2022-12-31T02:25:38.893Z,99870.56
2022-12-31T02:30:47.000Z,99862.25
2022-12-31T02:35:54.074Z,99875.47
2022-12-31T02:40:56.525Z,99857.94
2022-12-31T02:46:44.339Z,99860.78
2022-12-31T02:51:57.304Z,99884.66
2022-12-31T02:57:10.359Z,99874.06
2022-12-31T03:02:16.764Z,99882.13
2022-12-31T03:07:25.059Z,99874.09
2022-12-31T03:12:30.973Z,99876.41
2022-12-31T03:17:35.586Z,99861.63
2022-12-31T03:22:40.994Z,99875.00
2022-12-31T03:27:43.890Z,99889.56
2022-12-31T03:32:48.730Z,99882.94
2022-12-31T03:37:51.576Z,99894.81
2022-12-31T03:42:53.143Z,99881.50
2022-12-31T03:47:54.650Z,99878.38
2022-12-31T03:52:56.715Z,99881.47
2022-12-31T03:57:58.966Z,99899.25
2022-12-31T04:03:00.589Z,99888.38
2022-12-31T04:08:02.203Z,99907.22
2022-12-31T04:13:03.683Z,99918.22
2022-12-31T04:18:05.214Z,99899.03
2022-12-31T04:23:06.654Z,99904.88
2022-12-31T04:28:08.122Z,99907.72
2022-12-31T04:33:09.667Z,99905.75
2022-12-31T04:38:11.075Z,99920.09
2022-12-31T04:43:12.535Z,99937.22
2022-12-31T04:48:13.985Z,99923.28
2022-12-31T04:53:15.431Z,99937.75
2022-12-31T04:58:16.951Z,99941.47
2022-12-31T05:03:19.036Z,99948.34
2022-12-31T05:08:21.041Z,99953.03
2022-12-31T05:13:25.723Z,99956.88
2022-12-31T05:18:32.490Z,99952.75
2022-12-31T05:23:34.336Z,99963.63
2022-12-31T05:28:35.868Z,99944.63
2022-12-31T05:33:37.383Z,99949.69
2022-12-31T05:38:38.844Z,99961.81
2022-12-31T05:43:40.295Z,99981.03
2022-12-31T05:48:41.729Z,99967.56
2022-12-31T05:53:43.179Z,99980.59
2022-12-31T05:58:44.577Z,99979.78
2022-12-31T06:03:46.160Z,99984.34
2022-12-31T06:08:51.697Z,99999.47
2022-12-31T06:13:53.308Z,99996.81
2022-12-31T06:18:54.831Z,100014.00
2022-12-31T06:23:57.558Z,100001.41
2022-12-31T06:28:59.129Z,100005.31
2022-12-31T06:34:00.720Z,100018.41
2022-12-31T06:39:02.363Z,100011.28
2022-12-31T06:44:04.070Z,100012.06
2022-12-31T06:49:05.904Z,100023.72
2022-12-31T06:54:07.700Z,100017.06
2022-12-31T06:59:23.918Z,100009.03
2022-12-31T07:04:28.648Z,100020.22
2022-12-31T07:09:57.378Z,100024.19
2022-12-31T07:15:46.943Z,100028.72
2022-12-31T07:20:48.836Z,100042.19
2022-12-31T07:26:08.094Z,100055.69
2022-12-31T07:31:42.925Z,100061.66
2022-12-31T07:36:44.379Z,100056.50
2022-12-31T07:42:12.347Z,100064.47
2022-12-31T07:47:21.870Z,100069.97
2022-12-31T07:52:24.333Z,100084.53
2022-12-31T07:57:35.319Z,100092.00
2022-12-31T08:03:02.478Z,100085.50
2022-12-31T08:08:28.660Z,100098.78
2022-12-31T08:13:30.587Z,100096.69
2022-12-31T08:18:32.320Z,100094.97
2022-12-31T08:23:43.712Z,100094.16
2022-12-31T08:28:55.012Z,100090.81
2022-12-31T08:34:03.863Z,100105.16
2022-12-31T08:39:21.042Z,100119.19
2022-12-31T08:44:44.182Z,100108.50
2022-12-31T08:49:46.152Z,100125.81
2022-12-31T08:54:48.088Z,100132.41
2022-12-31T09:00:06.941Z,100139.69
2022-12-31T09:05:17.819Z,100162.03
2022-12-31T09:10:31.946Z,100138.84
2022-12-31T09:15:52.185Z,100129.53
2022-12-31T09:20:53.896Z,100148.38
2022-12-31T09:26:21.694Z,100133.00
2022-12-31T09:31:37.446Z,100149.69
2022-12-31T09:36:42.095Z,100133.38
2022-12-31T09:54:51.848Z,100168.34
2022-12-31T10:00:21.109Z,100179.38
2022-12-31T10:05:46.086Z,100185.38
2022-12-31T10:10:58.731Z,100188.09
2022-12-31T10:16:29.647Z,100192.03
2022-12-31T10:21:53.327Z,100189.56
2022-12-31T10:27:13.730Z,100199.94
2022-12-31T10:32:31.171Z,100196.47
2022-12-31T10:38:08.380Z,100199.22
2022-12-31T10:43:22.022Z,100210.78
2022-12-31T10:48:44.930Z,100222.75
2022-12-31T10:54:19.972Z,100202.91
2022-12-31T10:59:46.575Z,100219.69
2022-12-31T11:05:25.256Z,100228.34
2022-12-31T11:10:56.083Z,100223.50
2022-12-31T11:16:12.838Z,100222.22
2022-12-31T11:21:40.987Z,100227.72
2022-12-31T11:27:21.050Z,100215.78
2022-12-31T11:32:52.350Z,100204.47
2022-12-31T11:38:21.118Z,100224.09
2022-12-31T11:43:26.205Z,100221.28
2022-12-31T11:48:51.800Z,100213.22
2022-12-31T11:54:08.291Z,100204.69
2022-12-31T11:59:19.072Z,100216.09
2022-12-31T12:04:21.563Z,100209.22
2022-12-31T12:09:29.464Z,100196.09
2022-12-31T12:14:32.932Z,100178.75
2022-12-31T12:19:41.181Z,100166.34
2022-12-31T12:24:54.621Z,100168.41
2022-12-31T12:29:56.175Z,100153.44
2022-12-31T12:34:57.579Z,100138.63
2022-12-31T12:40:02.587Z,100142.66
2022-12-31T12:45:14.097Z,100152.44
2022-12-31T12:50:34.224Z,100162.06
2022-12-31T12:56:01.903Z,100161.66
2022-12-31T13:01:14.735Z,100158.03
2022-12-31T13:06:28.151Z,100145.34
2022-12-31T13:11:29.698Z,100152.19
2022-12-31T13:17:00.447Z,100151.78
2022-12-31T13:22:11.529Z,100143.09
2022-12-31T13:27:40.686Z,100141.59
2022-12-31T13:32:50.347Z,100152.09
2022-12-31T13:38:04.999Z,100175.41
2022-12-31T13:43:18.000Z,100176.31
2022-12-31T13:48:30.360Z,100176.06
2022-12-31T13:53:39.985Z,100175.13
2022-12-31T13:58:57.803Z,100186.97
2022-12-31T14:03:59.356Z,100189.38
2022-12-31T14:09:01.330Z,100208.94
2022-12-31T14:14:21.350Z,100200.63
2022-12-31T14:19:56.831Z,100195.47
2022-12-31T14:25:01.795Z,100190.06
2022-12-31T14:30:06.135Z,100179.63
2022-12-31T14:35:29.228Z,100174.59
2022-12-31T14:41:28.187Z,100183.38
2022-12-31T14:46:58.551Z,100180.00
2022-12-31T14:52:20.694Z,100185.66
2022-12-31T14:57:47.488Z,100185.66
2022-12-31T15:02:59.477Z,100184.38
2022-12-31T15:08:19.353Z,100191.72
2022-12-31T15:13:39.425Z,100195.22
2022-12-31T15:18:59.540Z,100201.81
2022-12-31T15:24:02.187Z,100209.47
2022-12-31T15:29:06.369Z,100214.91
2022-12-31T15:34:31.705Z,100212.34
2022-12-31T15:39:37.569Z,100217.28
2022-12-31T15:44:51.253Z,100230.69
2022-12-31T15:49:54.790Z,100230.19
2022-12-31T15:54:57.902Z,100240.34
2022-12-31T16:00:04.725Z,100231.94
2022-12-31T16:05:06.660Z,100231.94
2022-12-31T16:10:09.369Z,100232.09
2022-12-31T16:15:22.094Z,100220.75
2022-12-31T16:20:26.771Z,100229.22
2022-12-31T16:25:32.183Z,100227.41
2022-12-31T16:30:34.539Z,100224.25
2022-12-31T16:35:36.925Z,100224.72
2022-12-31T16:40:39.090Z,100225.53
2022-12-31T16:45:41.197Z,100219.41
2022-12-31T16:50:51.066Z,100213.56
2022-12-31T16:56:01.562Z,100226.84
2022-12-31T17:01:24.206Z,100228.31
2022-12-31T17:06:26.047Z,100229.31
2022-12-31T17:11:30.831Z,100242.44
2022-12-31T17:16:38.383Z,100238.13
2022-12-31T17:21:47.992Z,100230.19
2022-12-31T17:26:51.867Z,100241.19
2022-12-31T17:32:06.627Z,100239.53
2022-12-31T17:37:11.667Z,100244.25
2022-12-31T17:42:26.408Z,100248.03
2022-12-31T17:47:39.361Z,100254.59
2022-12-31T17:52:40.998Z,100264.50
2022-12-31T17:57:53.193Z,100252.66
2022-12-31T18:02:54.975Z,100265.03
2022-12-31T18:07:56.592Z,100265.06
2022-12-31T18:12:58.301Z,100261.84
2022-12-31T18:17:59.739Z,100263.50
2022-12-31T18:23:01.762Z,100261.00
2022-12-31T18:28:09.285Z,100268.25
2022-12-31T18:33:12.961Z,100276.38
2022-12-31T18:38:16.165Z,100274.81
2022-12-31T18:43:19.202Z,100284.03
2022-12-31T18:48:20.958Z,100275.41
2022-12-31T18:53:25.183Z,100273.31
2022-12-31T18:58:26.873Z,100272.06
2022-12-31T19:03:28.503Z,100275.41
2022-12-31T19:08:30.031Z,100271.81
2022-12-31T19:13:31.593Z,100267.72
2022-12-31T19:18:33.547Z,100266.78
2022-12-31T19:23:35.120Z,100270.25
2022-12-31T19:28:36.538Z,100270.56
2022-12-31T19:33:38.236Z,100282.34
2022-12-31T19:38:39.766Z,100281.28
2022-12-31T19:43:41.249Z,100283.63
2022-12-31T19:48:46.196Z,100289.59
2022-12-31T20:00:06.573Z,100293.94
2022-12-31T20:05:08.498Z,100284.19
2022-12-31T20:10:10.103Z,100288.09
2022-12-31T20:15:11.745Z,100290.16
2022-12-31T20:20:13.406Z,100287.94
2022-12-31T20:25:15.180Z,100285.03
2022-12-31T20:30:16.874Z,100287.13
2022-12-31T20:35:19.577Z,100295.31
2022-12-31T20:40:21.101Z,100291.84
2022-12-31T20:45:22.606Z,100309.81
2022-12-31T20:50:24.180Z,100309.38
2022-12-31T20:55:25.653Z,100309.94
2022-12-31T21:00:27.220Z,100309.38
2022-12-31T21:05:29.296Z,100305.91
2022-12-31T21:10:30.995Z,100307.44
2022-12-31T21:15:32.480Z,100307.72
2022-12-31T21:20:34.088Z,100319.84
2022-12-31T21:25:35.624Z,100330.56
2022-12-31T21:30:41.528Z,100327.38
2022-12-31T21:35:50.162Z,100348.00
2022-12-31T21:40:54.848Z,100347.00
2022-12-31T21:46:04.061Z,100350.91
2022-12-31T21:51:10.349Z,100365.28
2022-12-31T21:56:12.031Z,100369.16
2022-12-31T22:01:21.509Z,100376.53
2022-12-31T22:06:24.481Z,100380.28
2022-12-31T22:11:27.808Z,100371.50
2022-12-31T22:16:29.594Z,100373.19
2022-12-31T22:21:31.366Z,100382.78
2022-12-31T22:26:32.918Z,100394.91
2022-12-31T22:31:34.361Z,100391.13
2022-12-31T22:36:35.876Z,100384.69
2022-12-31T22:41:37.297Z,100389.94
2022-12-31T22:46:38.853Z,100398.97
2022-12-31T22:51:57.504Z,100408.69
2022-12-31T22:57:01.541Z,100406.91
2022-12-31T23:02:03.184Z,100405.38
2022-12-31T23:07:04.662Z,100410.72
2022-12-31T23:12:08.419Z,100405.38
2022-12-31T23:17:29.755Z,100409.25
2022-12-31T23:22:33.551Z,100407.84
2022-12-31T23:27:35.011Z,100399.00
2022-12-31T23:32:36.582Z,100408.03
2022-12-31T23:37:38.093Z,100406.81
2022-12-31T23:42:39.761Z,100407.06
2022-12-31T23:47:41.620Z,100408.72
2022-12-31T23:52:43.050Z,100412.09
2022-12-31T23:57:44.607Z,100410.16
